sensor_id;sensor_type;location;lat;lon;timestamp;temperature;humidity
52481;DHT22;38393;52.404;13.532;2023-07-13T00:01:17;18.00;98.70
52481;DHT22;38393;52.404;13.532;2023-07-13T00:03:43;17.90;99.90
52481;DHT22;38393;52.404;13.532;2023-07-13T00:06:09;17.80;99.90
52481;DHT22;38393;52.404;13.532;2023-07-13T00:08:34;17.70;99.90
52481;DHT22;38393;52.404;13.532;2023-07-13T00:11:01;17.60;99.90
52481;DHT22;38393;52.404;13.532;2023-07-13T00:13:27;17.60;99.90
52481;DHT22;38393;52.404;13.532;2023-07-13T00:15:53;17.50;99.90
52481;DHT22;38393;52.404;13.532;2023-07-13T00:18:19;17.40;99.90
52481;DHT22;38393;52.404;13.532;2023-07-13T00:20:45;17.30;99.90
52481;DHT22;38393;52.404;13.532;2023-07-13T00:23:10;17.40;99.90
52481;DHT22;38393;52.404;13.532;2023-07-13T00:25:36;17.30;99.90
52481;DHT22;38393;52.404;13.532;2023-07-13T00:28:02;17.40;99.90
52481;DHT22;38393;52.404;13.532;2023-07-13T00:30:28;17.60;99.90
52481;DHT22;38393;52.404;13.532;2023-07-13T00:32:53;17.80;99.90
52481;DHT22;38393;52.404;13.532;2023-07-13T00:35:19;17.80;99.90
52481;DHT22;38393;52.404;13.532;2023-07-13T00:37:45;17.70;99.90
52481;DHT22;38393;52.404;13.532;2023-07-13T00:40:13;17.70;99.90
52481;DHT22;38393;52.404;13.532;2023-07-13T00:42:39;17.60;99.90
52481;DHT22;38393;52.404;13.532;2023-07-13T00:47:55;17.50;99.90
52481;DHT22;38393;52.404;13.532;2023-07-13T00:50:22;17.50;99.90
52481;DHT22;38393;52.404;13.532;2023-07-13T00:52:52;17.60;99.90
52481;DHT22;38393;52.404;13.532;2023-07-13T00:55:19;17.70;99.90
52481;DHT22;38393;52.404;13.532;2023-07-13T00:57:45;17.60;99.90
52481;DHT22;38393;52.404;13.532;2023-07-13T01:00:12;17.50;99.90
52481;DHT22;38393;52.404;13.532;2023-07-13T01:02:41;17.30;99.90
52481;DHT22;38393;52.404;13.532;2023-07-13T01:05:12;17.10;99.90
52481;DHT22;38393;52.404;13.532;2023-07-13T01:07:39;17.00;99.90
52481;DHT22;38393;52.404;13.532;2023-07-13T01:10:06;16.80;99.90
52481;DHT22;38393;52.404;13.532;2023-07-13T01:12:32;16.80;99.90
52481;DHT22;38393;52.404;13.532;2023-07-13T01:14:59;16.70;99.90
52481;DHT22;38393;52.404;13.532;2023-07-13T01:17:27;16.60;99.90
52481;DHT22;38393;52.404;13.532;2023-07-13T01:19:53;16.60;99.90
52481;DHT22;38393;52.404;13.532;2023-07-13T01:22:19;16.70;99.90
52481;DHT22;38393;52.404;13.532;2023-07-13T01:24:47;16.70;99.90
52481;DHT22;38393;52.404;13.532;2023-07-13T01:27:15;16.60;99.90
52481;DHT22;38393;52.404;13.532;2023-07-13T01:29:43;16.50;99.90
52481;DHT22;38393;52.404;13.532;2023-07-13T01:32:11;16.40;99.90
52481;DHT22;38393;52.404;13.532;2023-07-13T01:34:37;16.50;99.90
52481;DHT22;38393;52.404;13.532;2023-07-13T01:37:04;16.40;99.90
52481;DHT22;38393;52.404;13.532;2023-07-13T01:39:30;16.50;99.90
52481;DHT22;38393;52.404;13.532;2023-07-13T01:41:57;16.40;99.90
52481;DHT22;38393;52.404;13.532;2023-07-13T01:44:22;16.40;99.90
52481;DHT22;38393;52.404;13.532;2023-07-13T01:46:48;16.30;99.90
52481;DHT22;38393;52.404;13.532;2023-07-13T01:49:13;16.20;99.90
52481;DHT22;38393;52.404;13.532;2023-07-13T01:51:39;16.30;99.90
52481;DHT22;38393;52.404;13.532;2023-07-13T01:54:04;16.10;99.90
52481;DHT22;38393;52.404;13.532;2023-07-13T01:56:30;16.10;99.90
52481;DHT22;38393;52.404;13.532;2023-07-13T01:58:55;16.20;99.90
52481;DHT22;38393;52.404;13.532;2023-07-13T02:01:22;16.20;99.90
52481;DHT22;38393;52.404;13.532;2023-07-13T02:03:47;16.40;99.90
52481;DHT22;38393;52.404;13.532;2023-07-13T02:06:13;16.20;99.90
52481;DHT22;38393;52.404;13.532;2023-07-13T02:08:41;16.10;99.90
52481;DHT22;38393;52.404;13.532;2023-07-13T02:11:07;16.10;99.90
52481;DHT22;38393;52.404;13.532;2023-07-13T02:13:32;15.90;99.90
52481;DHT22;38393;52.404;13.532;2023-07-13T02:15:58;16.10;99.90
52481;DHT22;38393;52.404;13.532;2023-07-13T02:18:23;16.10;99.90
52481;DHT22;38393;52.404;13.532;2023-07-13T02:20:49;16.00;99.90
52481;DHT22;38393;52.404;13.532;2023-07-13T02:23:14;15.90;99.90
52481;DHT22;38393;52.404;13.532;2023-07-13T02:25:40;15.90;99.90
52481;DHT22;38393;52.404;13.532;2023-07-13T02:28:05;15.80;99.90
52481;DHT22;38393;52.404;13.532;2023-07-13T02:30:31;15.70;99.90
52481;DHT22;38393;52.404;13.532;2023-07-13T02:32:57;15.80;99.90
52481;DHT22;38393;52.404;13.532;2023-07-13T02:35:23;15.90;99.90
52481;DHT22;38393;52.404;13.532;2023-07-13T02:37:48;15.60;99.90
52481;DHT22;38393;52.404;13.532;2023-07-13T02:40:14;15.70;99.90
52481;DHT22;38393;52.404;13.532;2023-07-13T02:42:40;15.60;99.90
52481;DHT22;38393;52.404;13.532;2023-07-13T02:45:07;15.60;99.90
52481;DHT22;38393;52.404;13.532;2023-07-13T02:47:33;15.60;99.90
52481;DHT22;38393;52.404;13.532;2023-07-13T02:49:59;15.50;99.90
52481;DHT22;38393;52.404;13.532;2023-07-13T02:52:24;15.50;99.90
52481;DHT22;38393;52.404;13.532;2023-07-13T02:54:50;15.30;99.90
52481;DHT22;38393;52.404;13.532;2023-07-13T02:57:16;15.40;99.90
52481;DHT22;38393;52.404;13.532;2023-07-13T02:59:41;15.40;99.90
52481;DHT22;38393;52.404;13.532;2023-07-13T03:02:07;15.50;99.90
52481;DHT22;38393;52.404;13.532;2023-07-13T03:04:37;15.50;99.90
52481;DHT22;38393;52.404;13.532;2023-07-13T03:07:04;15.50;99.90
52481;DHT22;38393;52.404;13.532;2023-07-13T03:09:30;15.60;99.90
52481;DHT22;38393;52.404;13.532;2023-07-13T03:11:56;15.50;99.90
52481;DHT22;38393;52.404;13.532;2023-07-13T03:14:22;15.70;99.90
52481;DHT22;38393;52.404;13.532;2023-07-13T03:16:48;15.60;99.90
52481;DHT22;38393;52.404;13.532;2023-07-13T03:19:13;15.60;99.90
52481;DHT22;38393;52.404;13.532;2023-07-13T03:21:39;15.60;99.90
52481;DHT22;38393;52.404;13.532;2023-07-13T03:24:04;15.60;99.90
52481;DHT22;38393;52.404;13.532;2023-07-13T03:26:30;16.00;99.90
52481;DHT22;38393;52.404;13.532;2023-07-13T03:28:55;16.40;99.90
52481;DHT22;38393;52.404;13.532;2023-07-13T03:31:27;16.50;99.90
52481;DHT22;38393;52.404;13.532;2023-07-13T03:33:54;16.60;99.90
52481;DHT22;38393;52.404;13.532;2023-07-13T03:36:22;16.60;99.90
52481;DHT22;38393;52.404;13.532;2023-07-13T03:38:55;16.60;99.90
52481;DHT22;38393;52.404;13.532;2023-07-13T03:41:22;16.60;99.90
52481;DHT22;38393;52.404;13.532;2023-07-13T03:43:48;16.70;99.90
52481;DHT22;38393;52.404;13.532;2023-07-13T03:46:14;16.60;99.90
52481;DHT22;38393;52.404;13.532;2023-07-13T03:48:41;16.60;99.90
52481;DHT22;38393;52.404;13.532;2023-07-13T03:51:08;16.60;99.90
52481;DHT22;38393;52.404;13.532;2023-07-13T03:53:38;16.60;99.90
52481;DHT22;38393;52.404;13.532;2023-07-13T03:56:04;16.60;99.90
52481;DHT22;38393;52.404;13.532;2023-07-13T03:58:38;16.60;99.90
52481;DHT22;38393;52.404;13.532;2023-07-13T04:01:06;16.60;99.90
52481;DHT22;38393;52.404;13.532;2023-07-13T04:03:33;16.60;99.90
52481;DHT22;38393;52.404;13.532;2023-07-13T04:05:59;16.60;99.90
52481;DHT22;38393;52.404;13.532;2023-07-13T04:08:34;16.80;99.90
52481;DHT22;38393;52.404;13.532;2023-07-13T04:10:59;16.80;99.90
52481;DHT22;38393;52.404;13.532;2023-07-13T04:13:26;16.80;99.90
52481;DHT22;38393;52.404;13.532;2023-07-13T04:15:52;16.80;99.90
52481;DHT22;38393;52.404;13.532;2023-07-13T04:18:18;17.00;99.90
52481;DHT22;38393;52.404;13.532;2023-07-13T04:20:48;17.10;99.90
52481;DHT22;38393;52.404;13.532;2023-07-13T04:23:14;17.00;99.90
52481;DHT22;38393;52.404;13.532;2023-07-13T04:25:44;17.20;99.90
52481;DHT22;38393;52.404;13.532;2023-07-13T04:28:09;17.30;99.90
52481;DHT22;38393;52.404;13.532;2023-07-13T04:30:35;17.30;99.90
52481;DHT22;38393;52.404;13.532;2023-07-13T04:33:00;17.30;99.90
52481;DHT22;38393;52.404;13.532;2023-07-13T04:35:26;17.40;99.90
52481;DHT22;38393;52.404;13.532;2023-07-13T04:37:52;17.60;99.90
52481;DHT22;38393;52.404;13.532;2023-07-13T04:40:18;17.70;99.90
52481;DHT22;38393;52.404;13.532;2023-07-13T04:42:44;17.80;99.90
52481;DHT22;38393;52.404;13.532;2023-07-13T04:45:10;17.80;99.90
52481;DHT22;38393;52.404;13.532;2023-07-13T04:47:36;18.00;99.90
52481;DHT22;38393;52.404;13.532;2023-07-13T04:50:02;17.90;99.90
52481;DHT22;38393;52.404;13.532;2023-07-13T04:52:28;18.00;99.90
52481;DHT22;38393;52.404;13.532;2023-07-13T04:54:53;18.00;99.90
52481;DHT22;38393;52.404;13.532;2023-07-13T04:57:19;18.10;99.90
52481;DHT22;38393;52.404;13.532;2023-07-13T04:59:44;18.30;99.90
52481;DHT22;38393;52.404;13.532;2023-07-13T05:02:10;18.40;99.90
52481;DHT22;38393;52.404;13.532;2023-07-13T05:04:35;18.30;99.90
52481;DHT22;38393;52.404;13.532;2023-07-13T05:07:01;18.30;99.90
52481;DHT22;38393;52.404;13.532;2023-07-13T05:09:26;18.30;99.90
52481;DHT22;38393;52.404;13.532;2023-07-13T05:11:52;18.40;99.90
52481;DHT22;38393;52.404;13.532;2023-07-13T05:14:17;18.60;99.90
52481;DHT22;38393;52.404;13.532;2023-07-13T05:16:43;18.80;99.90
52481;DHT22;38393;52.404;13.532;2023-07-13T05:19:09;19.10;99.90
52481;DHT22;38393;52.404;13.532;2023-07-13T05:21:34;19.10;99.90
52481;DHT22;38393;52.404;13.532;2023-07-13T05:24:00;19.20;99.90
52481;DHT22;38393;52.404;13.532;2023-07-13T05:26:25;19.10;99.90
52481;DHT22;38393;52.404;13.532;2023-07-13T05:28:50;19.00;99.90
52481;DHT22;38393;52.404;13.532;2023-07-13T05:31:16;19.20;99.90
52481;DHT22;38393;52.404;13.532;2023-07-13T05:33:41;19.40;99.90
52481;DHT22;38393;52.404;13.532;2023-07-13T05:36:07;19.60;99.90
52481;DHT22;38393;52.404;13.532;2023-07-13T05:38:33;19.80;99.90
52481;DHT22;38393;52.404;13.532;2023-07-13T05:40:59;19.80;99.90
52481;DHT22;38393;52.404;13.532;2023-07-13T05:43:24;19.60;99.90
52481;DHT22;38393;52.404;13.532;2023-07-13T05:45:53;19.90;99.80
52481;DHT22;38393;52.404;13.532;2023-07-13T05:48:19;20.00;98.50
52481;DHT22;38393;52.404;13.532;2023-07-13T05:50:44;20.10;97.80
52481;DHT22;38393;52.404;13.532;2023-07-13T05:53:11;20.10;97.90
52481;DHT22;38393;52.404;13.532;2023-07-13T05:55:44;20.20;95.80
52481;DHT22;38393;52.404;13.532;2023-07-13T05:58:10;20.40;96.10
52481;DHT22;38393;52.404;13.532;2023-07-13T06:00:36;20.60;94.10
52481;DHT22;38393;52.404;13.532;2023-07-13T06:03:01;20.60;93.00
52481;DHT22;38393;52.404;13.532;2023-07-13T06:05:27;20.70;92.60
52481;DHT22;38393;52.404;13.532;2023-07-13T06:07:54;20.90;91.60
52481;DHT22;38393;52.404;13.532;2023-07-13T06:10:19;21.00;91.90
52481;DHT22;38393;52.404;13.532;2023-07-13T06:12:45;21.20;89.40
52481;DHT22;38393;52.404;13.532;2023-07-13T06:15:11;21.20;89.50
52481;DHT22;38393;52.404;13.532;2023-07-13T06:17:36;21.10;89.30
52481;DHT22;38393;52.404;13.532;2023-07-13T06:20:02;21.10;88.40
52481;DHT22;38393;52.404;13.532;2023-07-13T06:22:27;21.30;89.80
52481;DHT22;38393;52.404;13.532;2023-07-13T06:24:53;21.30;87.70
52481;DHT22;38393;52.404;13.532;2023-07-13T06:27:18;21.50;86.20
52481;DHT22;38393;52.404;13.532;2023-07-13T06:29:44;21.60;86.90
52481;DHT22;38393;52.404;13.532;2023-07-13T06:32:10;21.60;86.30
52481;DHT22;38393;52.404;13.532;2023-07-13T06:34:36;21.80;86.90
52481;DHT22;38393;52.404;13.532;2023-07-13T06:37:01;22.00;81.90
52481;DHT22;38393;52.404;13.532;2023-07-13T06:39:26;22.00;81.80
52481;DHT22;38393;52.404;13.532;2023-07-13T06:41:52;21.60;82.70
52481;DHT22;38393;52.404;13.532;2023-07-13T06:44:17;21.60;80.90
52481;DHT22;38393;52.404;13.532;2023-07-13T06:46:43;21.60;79.60
52481;DHT22;38393;52.404;13.532;2023-07-13T06:49:09;21.60;79.20
52481;DHT22;38393;52.404;13.532;2023-07-13T06:51:34;22.00;78.60
52481;DHT22;38393;52.404;13.532;2023-07-13T06:54:00;22.00;78.90
52481;DHT22;38393;52.404;13.532;2023-07-13T06:56:25;22.10;77.10
52481;DHT22;38393;52.404;13.532;2023-07-13T06:58:51;22.20;77.10
52481;DHT22;38393;52.404;13.532;2023-07-13T07:01:16;22.00;80.10
52481;DHT22;38393;52.404;13.532;2023-07-13T07:03:42;22.20;81.80
52481;DHT22;38393;52.404;13.532;2023-07-13T07:06:17;22.70;76.80
52481;DHT22;38393;52.404;13.532;2023-07-13T07:08:43;22.40;75.60
52481;DHT22;38393;52.404;13.532;2023-07-13T07:11:12;22.30;76.50
52481;DHT22;38393;52.404;13.532;2023-07-13T07:13:38;22.00;75.40
52481;DHT22;38393;52.404;13.532;2023-07-13T07:16:03;22.20;76.30
52481;DHT22;38393;52.404;13.532;2023-07-13T07:18:29;22.20;79.80
52481;DHT22;38393;52.404;13.532;2023-07-13T07:20:54;22.60;77.00
52481;DHT22;38393;52.404;13.532;2023-07-13T07:23:20;22.40;74.10
52481;DHT22;38393;52.404;13.532;2023-07-13T07:25:45;22.50;74.00
52481;DHT22;38393;52.404;13.532;2023-07-13T07:28:12;22.60;70.80
52481;DHT22;38393;52.404;13.532;2023-07-13T07:30:42;22.40;72.60
52481;DHT22;38393;52.404;13.532;2023-07-13T07:33:08;22.70;72.60
52481;DHT22;38393;52.404;13.532;2023-07-13T07:35:33;22.70;69.80
52481;DHT22;38393;52.404;13.532;2023-07-13T07:37:59;22.70;69.50
52481;DHT22;38393;52.404;13.532;2023-07-13T07:40:24;23.00;70.60
52481;DHT22;38393;52.404;13.532;2023-07-13T07:42:50;22.80;69.60
52481;DHT22;38393;52.404;13.532;2023-07-13T07:45:16;22.80;70.70
52481;DHT22;38393;52.404;13.532;2023-07-13T07:47:41;23.20;71.10
52481;DHT22;38393;52.404;13.532;2023-07-13T07:50:07;23.10;70.40
52481;DHT22;38393;52.404;13.532;2023-07-13T07:52:32;23.40;67.50
52481;DHT22;38393;52.404;13.532;2023-07-13T07:54:58;23.50;68.40
52481;DHT22;38393;52.404;13.532;2023-07-13T07:57:23;23.40;65.00
52481;DHT22;38393;52.404;13.532;2023-07-13T07:59:49;23.10;67.70
52481;DHT22;38393;52.404;13.532;2023-07-13T08:02:14;23.00;65.80
52481;DHT22;38393;52.404;13.532;2023-07-13T08:04:40;23.10;69.10
52481;DHT22;38393;52.404;13.532;2023-07-13T08:07:05;23.10;69.20
52481;DHT22;38393;52.404;13.532;2023-07-13T08:09:31;23.50;65.40
52481;DHT22;38393;52.404;13.532;2023-07-13T08:11:57;23.60;65.80
52481;DHT22;38393;52.404;13.532;2023-07-13T08:14:22;23.60;64.30
52481;DHT22;38393;52.404;13.532;2023-07-13T08:16:48;23.40;65.00
52481;DHT22;38393;52.404;13.532;2023-07-13T08:19:13;23.70;64.40
52481;DHT22;38393;52.404;13.532;2023-07-13T08:21:39;24.10;64.30
52481;DHT22;38393;52.404;13.532;2023-07-13T08:24:04;23.70;66.50
52481;DHT22;38393;52.404;13.532;2023-07-13T08:26:30;23.90;63.30
52481;DHT22;38393;52.404;13.532;2023-07-13T08:28:55;23.40;63.40
52481;DHT22;38393;52.404;13.532;2023-07-13T08:31:21;23.80;62.80
52481;DHT22;38393;52.404;13.532;2023-07-13T08:33:46;23.60;62.60
52481;DHT22;38393;52.404;13.532;2023-07-13T08:36:11;23.20;64.00
52481;DHT22;38393;52.404;13.532;2023-07-13T08:38:37;23.10;67.10
52481;DHT22;38393;52.404;13.532;2023-07-13T08:41:12;23.00;64.80
52481;DHT22;38393;52.404;13.532;2023-07-13T08:43:37;22.90;66.90
52481;DHT22;38393;52.404;13.532;2023-07-13T08:46:19;23.10;66.40
52481;DHT22;38393;52.404;13.532;2023-07-13T08:48:52;23.30;66.00
52481;DHT22;38393;52.404;13.532;2023-07-13T08:54:33;23.20;66.50
52481;DHT22;38393;52.404;13.532;2023-07-13T08:57:05;23.90;67.30
52481;DHT22;38393;52.404;13.532;2023-07-13T08:59:36;23.90;66.10
52481;DHT22;38393;52.404;13.532;2023-07-13T09:02:26;24.20;65.40
52481;DHT22;38393;52.404;13.532;2023-07-13T09:05:01;24.50;64.40
52481;DHT22;38393;52.404;13.532;2023-07-13T09:10:26;24.30;62.30
52481;DHT22;38393;52.404;13.532;2023-07-13T09:15:43;23.90;63.90
52481;DHT22;38393;52.404;13.532;2023-07-13T09:18:26;23.60;63.30
52481;DHT22;38393;52.404;13.532;2023-07-13T09:20:56;23.90;63.30
52481;DHT22;38393;52.404;13.532;2023-07-13T09:23:24;24.30;63.40
52481;DHT22;38393;52.404;13.532;2023-07-13T09:25:54;24.50;60.00
52481;DHT22;38393;52.404;13.532;2023-07-13T09:28:29;24.40;58.70
52481;DHT22;38393;52.404;13.532;2023-07-13T09:31:05;23.90;59.70
52481;DHT22;38393;52.404;13.532;2023-07-13T09:33:31;24.10;59.90
52481;DHT22;38393;52.404;13.532;2023-07-13T09:36:00;24.50;57.30
52481;DHT22;38393;52.404;13.532;2023-07-13T09:38:29;24.70;52.80
52481;DHT22;38393;52.404;13.532;2023-07-13T09:41:11;24.50;51.50
52481;DHT22;38393;52.404;13.532;2023-07-13T09:44:06;24.50;52.50
52481;DHT22;38393;52.404;13.532;2023-07-13T09:46:34;24.30;54.60
52481;DHT22;38393;52.404;13.532;2023-07-13T09:48:59;23.80;52.60
52481;DHT22;38393;52.404;13.532;2023-07-13T09:51:25;23.50;53.80
52481;DHT22;38393;52.404;13.532;2023-07-13T09:53:50;23.70;54.40
52481;DHT22;38393;52.404;13.532;2023-07-13T09:56:25;23.50;55.20
52481;DHT22;38393;52.404;13.532;2023-07-13T09:58:51;23.40;56.60
52481;DHT22;38393;52.404;13.532;2023-07-13T10:01:32;23.60;57.60
52481;DHT22;38393;52.404;13.532;2023-07-13T10:03:58;24.00;55.10
52481;DHT22;38393;52.404;13.532;2023-07-13T10:06:23;23.70;55.20
52481;DHT22;38393;52.404;13.532;2023-07-13T10:08:50;23.80;54.70
52481;DHT22;38393;52.404;13.532;2023-07-13T10:11:20;23.60;55.90
52481;DHT22;38393;52.404;13.532;2023-07-13T10:13:52;23.90;55.70
52481;DHT22;38393;52.404;13.532;2023-07-13T10:16:21;23.70;56.10
52481;DHT22;38393;52.404;13.532;2023-07-13T10:18:55;23.80;56.70
52481;DHT22;38393;52.404;13.532;2023-07-13T10:21:23;24.30;57.30
52481;DHT22;38393;52.404;13.532;2023-07-13T10:23:57;25.00;55.90
52481;DHT22;38393;52.404;13.532;2023-07-13T10:26:31;25.40;53.40
52481;DHT22;38393;52.404;13.532;2023-07-13T10:29:00;25.30;53.00
52481;DHT22;38393;52.404;13.532;2023-07-13T10:31:30;25.10;53.90
52481;DHT22;38393;52.404;13.532;2023-07-13T10:33:56;24.70;55.20
52481;DHT22;38393;52.404;13.532;2023-07-13T10:36:40;24.60;56.00
52481;DHT22;38393;52.404;13.532;2023-07-13T10:39:13;24.50;55.80
52481;DHT22;38393;52.404;13.532;2023-07-13T10:41:41;24.30;55.70
52481;DHT22;38393;52.404;13.532;2023-07-13T10:44:18;24.50;56.80
52481;DHT22;38393;52.404;13.532;2023-07-13T10:46:45;24.90;57.20
52481;DHT22;38393;52.404;13.532;2023-07-13T10:49:11;24.50;54.60
52481;DHT22;38393;52.404;13.532;2023-07-13T10:51:38;24.80;53.70
52481;DHT22;38393;52.404;13.532;2023-07-13T10:54:15;24.50;53.90
52481;DHT22;38393;52.404;13.532;2023-07-13T10:56:42;24.30;55.60
52481;DHT22;38393;52.404;13.532;2023-07-13T10:59:25;24.10;54.00
52481;DHT22;38393;52.404;13.532;2023-07-13T11:01:55;24.00;55.10
52481;DHT22;38393;52.404;13.532;2023-07-13T11:04:22;24.20;55.90
52481;DHT22;38393;52.404;13.532;2023-07-13T11:06:52;24.40;54.60
52481;DHT22;38393;52.404;13.532;2023-07-13T11:09:38;24.30;55.00
52481;DHT22;38393;52.404;13.532;2023-07-13T11:27:50;25.00;49.00
52481;DHT22;38393;52.404;13.532;2023-07-13T11:35:41;25.20;50.30
52481;DHT22;38393;52.404;13.532;2023-07-13T11:38:28;25.10;49.50
52481;DHT22;38393;52.404;13.532;2023-07-13T11:40:55;25.30;48.60
52481;DHT22;38393;52.404;13.532;2023-07-13T11:43:21;25.00;48.00
52481;DHT22;38393;52.404;13.532;2023-07-13T11:45:50;25.20;47.90
52481;DHT22;38393;52.404;13.532;2023-07-13T11:48:19;25.00;49.40
52481;DHT22;38393;52.404;13.532;2023-07-13T11:50:54;24.60;48.70
52481;DHT22;38393;52.404;13.532;2023-07-13T11:53:21;25.10;47.90
52481;DHT22;38393;52.404;13.532;2023-07-13T11:55:47;25.30;47.60
52481;DHT22;38393;52.404;13.532;2023-07-13T11:58:23;25.60;47.60
52481;DHT22;38393;52.404;13.532;2023-07-13T12:00:49;25.40;46.40
52481;DHT22;38393;52.404;13.532;2023-07-13T12:03:20;25.60;45.60
52481;DHT22;38393;52.404;13.532;2023-07-13T12:05:58;25.70;44.10
52481;DHT22;38393;52.404;13.532;2023-07-13T12:08:24;26.00;45.30
52481;DHT22;38393;52.404;13.532;2023-07-13T12:11:01;25.90;46.30
52481;DHT22;38393;52.404;13.532;2023-07-13T12:13:36;25.60;45.20
52481;DHT22;38393;52.404;13.532;2023-07-13T12:16:01;25.70;45.70
52481;DHT22;38393;52.404;13.532;2023-07-13T12:18:31;25.90;45.50
52481;DHT22;38393;52.404;13.532;2023-07-13T12:20:58;26.30;46.50
52481;DHT22;38393;52.404;13.532;2023-07-13T12:23:32;26.00;44.60
52481;DHT22;38393;52.404;13.532;2023-07-13T12:26:01;25.70;46.20
52481;DHT22;38393;52.404;13.532;2023-07-13T12:31:02;25.80;45.00
52481;DHT22;38393;52.404;13.532;2023-07-13T12:33:29;25.60;44.50
52481;DHT22;38393;52.404;13.532;2023-07-13T12:35:57;25.90;44.50
52481;DHT22;38393;52.404;13.532;2023-07-13T12:38:25;26.00;44.80
52481;DHT22;38393;52.404;13.532;2023-07-13T12:40:51;25.80;44.20
52481;DHT22;38393;52.404;13.532;2023-07-13T12:43:20;25.50;44.20
52481;DHT22;38393;52.404;13.532;2023-07-13T12:46:14;25.50;45.20
52481;DHT22;38393;52.404;13.532;2023-07-13T12:48:42;25.50;46.20
52481;DHT22;38393;52.404;13.532;2023-07-13T12:51:14;25.90;44.80
52481;DHT22;38393;52.404;13.532;2023-07-13T12:53:49;26.20;44.30
52481;DHT22;38393;52.404;13.532;2023-07-13T12:56:22;26.10;45.30
52481;DHT22;38393;52.404;13.532;2023-07-13T12:58:48;26.20;44.50
52481;DHT22;38393;52.404;13.532;2023-07-13T13:01:21;26.40;46.70
52481;DHT22;38393;52.404;13.532;2023-07-13T13:03:52;26.10;43.50
52481;DHT22;38393;52.404;13.532;2023-07-13T13:06:20;25.90;44.80
52481;DHT22;38393;52.404;13.532;2023-07-13T13:08:50;25.40;44.80
52481;DHT22;38393;52.404;13.532;2023-07-13T13:11:16;25.30;45.00
52481;DHT22;38393;52.404;13.532;2023-07-13T13:13:42;25.40;46.50
52481;DHT22;38393;52.404;13.532;2023-07-13T13:18:40;25.80;45.90
52481;DHT22;38393;52.404;13.532;2023-07-13T13:21:05;26.10;45.00
52481;DHT22;38393;52.404;13.532;2023-07-13T13:23:31;25.60;46.30
52481;DHT22;38393;52.404;13.532;2023-07-13T13:25:57;25.80;46.30
52481;DHT22;38393;52.404;13.532;2023-07-13T13:28:22;26.00;44.70
52481;DHT22;38393;52.404;13.532;2023-07-13T13:30:50;26.00;46.70
52481;DHT22;38393;52.404;13.532;2023-07-13T13:33:18;26.00;45.70
52481;DHT22;38393;52.404;13.532;2023-07-13T13:35:44;25.90;43.70
52481;DHT22;38393;52.404;13.532;2023-07-13T13:38:17;26.00;44.20
52481;DHT22;38393;52.404;13.532;2023-07-13T13:40:45;26.10;45.50
52481;DHT22;38393;52.404;13.532;2023-07-13T13:43:25;26.00;44.20
52481;DHT22;38393;52.404;13.532;2023-07-13T13:45:55;26.00;43.80
52481;DHT22;38393;52.404;13.532;2023-07-13T13:48:33;25.70;44.10
52481;DHT22;38393;52.404;13.532;2023-07-13T13:51:00;25.60;44.70
52481;DHT22;38393;52.404;13.532;2023-07-13T13:53:26;26.00;46.30
52481;DHT22;38393;52.404;13.532;2023-07-13T13:55:52;26.40;44.40
52481;DHT22;38393;52.404;13.532;2023-07-13T13:58:18;26.60;45.20
52481;DHT22;38393;52.404;13.532;2023-07-13T14:00:44;26.90;44.60
52481;DHT22;38393;52.404;13.532;2023-07-13T14:03:18;26.80;42.00
52481;DHT22;38393;52.404;13.532;2023-07-13T14:05:44;26.60;42.30
52481;DHT22;38393;52.404;13.532;2023-07-13T14:08:15;26.10;42.40
52481;DHT22;38393;52.404;13.532;2023-07-13T14:10:41;25.80;42.70
52481;DHT22;38393;52.404;13.532;2023-07-13T14:13:21;26.30;43.90
52481;DHT22;38393;52.404;13.532;2023-07-13T14:15:48;26.30;43.30
52481;DHT22;38393;52.404;13.532;2023-07-13T14:18:14;26.40;42.30
52481;DHT22;38393;52.404;13.532;2023-07-13T14:20:44;25.90;41.10
52481;DHT22;38393;52.404;13.532;2023-07-13T14:23:13;25.50;42.30
52481;DHT22;38393;52.404;13.532;2023-07-13T14:25:39;25.40;43.60
52481;DHT22;38393;52.404;13.532;2023-07-13T14:28:26;25.70;45.60
52481;DHT22;38393;52.404;13.532;2023-07-13T14:30:53;25.90;44.20
52481;DHT22;38393;52.404;13.532;2023-07-13T14:33:20;25.90;44.90
52481;DHT22;38393;52.404;13.532;2023-07-13T14:35:46;26.00;44.70
52481;DHT22;38393;52.404;13.532;2023-07-13T14:38:15;25.90;44.70
52481;DHT22;38393;52.404;13.532;2023-07-13T14:40:42;26.30;44.40
52481;DHT22;38393;52.404;13.532;2023-07-13T14:43:12;26.40;44.00
52481;DHT22;38393;52.404;13.532;2023-07-13T14:45:42;25.70;44.70
52481;DHT22;38393;52.404;13.532;2023-07-13T14:48:17;25.80;44.00
52481;DHT22;38393;52.404;13.532;2023-07-13T14:50:44;26.30;44.00
52481;DHT22;38393;52.404;13.532;2023-07-13T14:53:12;26.20;45.40
52481;DHT22;38393;52.404;13.532;2023-07-13T14:55:38;26.00;44.80
52481;DHT22;38393;52.404;13.532;2023-07-13T14:58:04;25.90;44.40
52481;DHT22;38393;52.404;13.532;2023-07-13T15:00:29;25.60;44.90
52481;DHT22;38393;52.404;13.532;2023-07-13T15:02:57;25.90;44.50
52481;DHT22;38393;52.404;13.532;2023-07-13T15:05:26;26.10;44.50
52481;DHT22;38393;52.404;13.532;2023-07-13T15:07:55;26.10;44.20
52481;DHT22;38393;52.404;13.532;2023-07-13T15:10:27;25.90;45.00
52481;DHT22;38393;52.404;13.532;2023-07-13T15:13:00;26.10;44.80
52481;DHT22;38393;52.404;13.532;2023-07-13T15:15:28;26.00;44.60
52481;DHT22;38393;52.404;13.532;2023-07-13T15:17:53;26.00;44.70
52481;DHT22;38393;52.404;13.532;2023-07-13T15:20:32;25.90;45.00
52481;DHT22;38393;52.404;13.532;2023-07-13T15:23:00;25.90;41.50
52481;DHT22;38393;52.404;13.532;2023-07-13T15:25:28;26.00;41.10
52481;DHT22;38393;52.404;13.532;2023-07-13T15:27:56;26.00;42.40
52481;DHT22;38393;52.404;13.532;2023-07-13T15:30:22;26.10;41.50
52481;DHT22;38393;52.404;13.532;2023-07-13T15:32:50;26.10;41.60
52481;DHT22;38393;52.404;13.532;2023-07-13T15:35:21;25.90;41.10
52481;DHT22;38393;52.404;13.532;2023-07-13T15:37:48;26.10;41.00
52481;DHT22;38393;52.404;13.532;2023-07-13T15:40:14;25.80;42.00
52481;DHT22;38393;52.404;13.532;2023-07-13T15:42:41;25.80;42.20
52481;DHT22;38393;52.404;13.532;2023-07-13T15:47:42;26.10;42.00
52481;DHT22;38393;52.404;13.532;2023-07-13T15:50:16;26.20;41.10
52481;DHT22;38393;52.404;13.532;2023-07-13T15:52:42;26.30;41.20
52481;DHT22;38393;52.404;13.532;2023-07-13T15:55:12;26.30;42.10
52481;DHT22;38393;52.404;13.532;2023-07-13T15:57:40;26.20;41.30
52481;DHT22;38393;52.404;13.532;2023-07-13T16:00:21;26.20;40.50